Terminal Aerodrome Forecast
Issued by NWS Wilmington, OH

Current Version | Previous Version | Graphics & Text | Print | Product List | Glossary On
Versions: 1 2 3 4 5 6 7 8 9 10 11 12 13 14 15 16 17 18 19 20 21 22 23 24 25 26 27 28 29 30 31 32 33 34 35
000
FTUS41 KILN 191100 AAA
TAFCMH
TAF AMD
KCMH 191200Z 1912/2012 24003KT 6SM BR VCSH SCT006 BKN030 OVC070
      TEMPO 1912/1916 4SM -SHRA BR SCT006 OVC010
     FM191800 16007KT P6SM VCSH OVC022
      TEMPO 1919/1923 -SHRA OVC015
     FM200100 11003KT P6SM VCSH OVC025=

USA.gov is the U.S. government's official web portal to all federal, state and local government web resources and services.